createdAt,value
2018-12-09T15:07:52.668Z,99112.82
2018-12-09T15:16:30.355Z,99156.25
2018-12-09T15:19:00.701Z,99166.97
2018-12-09T15:21:30.924Z,99171.58
2018-12-09T15:24:00.311Z,99169.36
2018-12-09T15:26:29.656Z,99182.09
2018-12-09T15:28:59.164Z,99179.21
2018-12-09T15:31:28.663Z,99188.70
2018-12-09T15:34:01.794Z,99186.56
2018-12-09T15:36:31.924Z,99197.06
2018-12-09T15:39:01.102Z,99190.05
2018-12-09T15:41:30.535Z,99197.92
2018-12-09T15:43:59.975Z,99201.06
2018-12-09T15:46:29.413Z,99202.98
2018-12-09T15:48:59.139Z,99204.61
2018-12-09T15:51:28.499Z,99209.31
2018-12-09T15:54:01.324Z,99221.60
2018-12-09T15:56:30.741Z,99234.40
2018-12-09T15:59:00.819Z,99247.20
2018-12-09T16:01:30.473Z,99250.62
2018-12-09T16:03:59.844Z,99240.80
2018-12-09T16:06:37.935Z,99249.38
2018-12-09T16:09:08.389Z,99246.00
2018-12-09T16:11:37.789Z,99265.59
2018-12-09T16:14:07.018Z,99270.16
2018-12-09T16:16:36.365Z,99285.12
2018-12-09T16:19:05.989Z,99286.76
2018-12-09T16:21:35.293Z,99286.73
2018-12-09T16:24:04.583Z,99306.64
2018-12-09T16:26:33.599Z,99303.90
2018-12-09T16:29:02.870Z,99299.45
2018-12-09T16:31:31.885Z,99305.66
2018-12-09T16:34:00.919Z,99311.44
2018-12-09T16:36:30.092Z,99307.74
2018-12-09T16:38:59.174Z,99325.23
2018-12-09T16:41:28.319Z,99321.75
2018-12-09T16:43:57.338Z,99329.71
2018-12-09T16:46:26.573Z,99330.63
2018-12-09T16:48:55.704Z,99354.03
2018-12-09T16:51:25.135Z,99367.13
2018-12-09T16:53:54.253Z,99373.91
2018-12-09T16:56:23.384Z,99370.59
2018-12-09T16:58:52.464Z,99382.31
2018-12-09T17:01:21.529Z,99389.28
2018-12-09T17:03:50.688Z,99400.33
2018-12-09T17:06:19.761Z,99393.77
2018-12-09T17:08:48.977Z,99402.17
2018-12-09T17:11:18.088Z,99404.78
2018-12-09T17:13:47.140Z,99410.08
2018-12-09T17:16:17.274Z,99412.38
2018-12-09T17:18:47.134Z,99419.75
2018-12-09T17:21:16.844Z,99425.30
2018-12-09T17:23:47.175Z,99430.66
2018-12-09T17:26:16.739Z,99434.84
2018-12-09T17:28:46.373Z,99435.89
2018-12-09T17:31:15.877Z,99453.27
2018-12-09T17:33:46.481Z,99444.23
2018-12-09T17:36:17.632Z,99460.95
2018-12-09T17:38:47.437Z,99450.98
2018-12-09T17:41:24.955Z,99465.80
2018-12-09T17:43:49.439Z,99481.95
2018-12-09T17:46:18.542Z,99492.47
2018-12-09T17:48:49.896Z,99505.23
2018-12-09T17:51:19.759Z,99507.55
2018-12-09T17:53:49.620Z,99518.16
2018-12-09T17:56:20.777Z,99518.19
2018-12-09T17:58:49.953Z,99533.36
2018-12-09T18:01:22.066Z,99535.33
2018-12-09T18:03:52.547Z,99535.45
2018-12-09T18:06:21.736Z,99537.55
2018-12-09T18:08:53.750Z,99536.72
2018-12-09T18:11:26.593Z,99539.52
2018-12-09T18:13:56.956Z,99555.75
2018-12-09T18:16:26.153Z,99564.43
2018-12-09T18:18:56.250Z,99563.28
2018-12-09T18:21:25.355Z,99574.55
2018-12-09T18:23:54.826Z,99578.09
2018-12-09T18:26:24.041Z,99584.80
2018-12-09T18:28:53.381Z,99589.89
2018-12-09T18:31:22.619Z,99607.16
2018-12-09T18:33:51.970Z,99598.33
2018-12-09T18:36:21.839Z,99615.75
2018-12-09T18:38:51.242Z,99621.75
2018-12-09T18:41:21.039Z,99621.13
2018-12-09T18:43:50.862Z,99632.68
2018-12-09T18:46:20.073Z,99625.37
2018-12-09T18:48:50.066Z,99652.11
2018-12-09T18:51:19.322Z,99653.14
2018-12-09T18:53:49.837Z,99645.27
2018-12-09T18:56:19.032Z,99652.55
2018-12-09T18:58:48.219Z,99672.29
2018-12-09T19:01:17.552Z,99674.03
2018-12-09T19:03:46.742Z,99670.16
2018-12-09T19:06:16.836Z,99674.16
2018-12-09T19:08:46.188Z,99685.55
2018-12-09T19:11:15.525Z,99692.88
2018-12-09T19:13:44.849Z,99696.18
2018-12-09T19:16:15.039Z,99704.36
2018-12-09T19:18:44.320Z,99703.89
2018-12-09T19:21:13.894Z,99708.22
2018-12-09T19:23:44.774Z,99716.19
2018-12-09T19:26:16.812Z,99716.86
2018-12-09T19:28:46.971Z,99723.41
2018-12-09T19:31:16.476Z,99734.25
2018-12-09T19:33:49.059Z,99733.89
2018-12-09T19:36:19.616Z,99755.32
2018-12-09T19:38:49.054Z,99753.17
2018-12-09T19:41:18.615Z,99760.98
2018-12-09T19:43:48.646Z,99767.04
2018-12-09T19:46:18.393Z,99777.09
2018-12-09T19:48:48.093Z,99774.84
2018-12-09T19:51:17.797Z,99795.80
2018-12-09T19:53:47.548Z,99801.48
2018-12-09T19:56:17.030Z,99802.86
2018-12-09T19:58:46.452Z,99803.52
2018-12-09T20:01:15.948Z,99813.37
2018-12-09T20:03:45.485Z,99817.75
2018-12-09T20:06:15.091Z,99818.19
2018-12-09T20:08:44.756Z,99823.86
2018-12-09T20:11:15.288Z,99838.16
2018-12-09T20:13:45.112Z,99840.64
2018-12-09T20:16:14.843Z,99857.67
2018-12-09T20:18:45.271Z,99860.30
2018-12-09T20:21:16.410Z,99863.06
2018-12-09T20:23:46.460Z,99874.97
2018-12-09T20:26:16.412Z,99879.02
2018-12-09T20:28:46.074Z,99891.31
2018-12-09T20:31:16.333Z,99882.69
2018-12-09T20:33:46.085Z,99892.30
2018-12-09T20:36:15.461Z,99901.20
2018-12-09T20:38:45.042Z,99908.13
2018-12-09T20:41:15.119Z,99917.39
2018-12-09T20:43:45.122Z,99912.88
2018-12-09T20:46:15.014Z,99921.93
2018-12-09T20:48:44.622Z,99924.45
2018-12-09T20:51:14.258Z,99930.50
2018-12-09T20:53:44.235Z,99928.33
2018-12-09T20:56:13.780Z,99919.59
2018-12-09T20:58:43.849Z,99936.94
2018-12-09T21:01:13.227Z,99942.56
2018-12-09T21:03:42.841Z,99948.20
2018-12-09T21:06:12.208Z,99957.85
2018-12-09T21:08:41.540Z,99949.61
2018-12-09T21:11:10.966Z,99957.55
2018-12-09T21:13:40.503Z,99957.74
2018-12-09T21:16:09.849Z,99962.70
2018-12-09T21:18:39.150Z,99963.69
2018-12-09T21:21:08.448Z,99977.21
2018-12-09T21:25:30.096Z,99974.94
2018-12-09T21:27:59.737Z,99983.51
2018-12-09T21:30:29.405Z,99995.70
2018-12-09T21:32:58.532Z,99995.35
2018-12-09T21:35:27.725Z,100003.72
2018-12-09T21:37:56.946Z,100008.95
2018-12-09T21:40:26.284Z,100015.55
2018-12-09T21:42:55.598Z,100018.30
2018-12-09T21:45:24.774Z,100020.01
2018-12-09T21:47:53.878Z,100012.23
2018-12-09T21:50:23.055Z,100020.05
2018-12-09T21:52:52.225Z,100027.21
2018-12-09T21:55:21.320Z,100024.28
2018-12-09T21:57:50.399Z,100035.75
2018-12-09T22:00:19.422Z,100038.88
2018-12-09T22:02:48.484Z,100045.92
2018-12-09T22:05:17.575Z,100049.86
2018-12-09T22:07:46.658Z,100055.92
2018-12-09T22:10:16.405Z,100063.78
2018-12-09T22:12:45.591Z,100070.89
2018-12-09T22:15:14.687Z,100082.23
2018-12-09T22:17:43.783Z,100087.53
2018-12-09T22:20:12.958Z,100091.92
2018-12-09T22:22:42.151Z,100097.09
2018-12-09T22:25:11.179Z,100101.48
2018-12-09T22:27:40.348Z,100094.48
2018-12-09T22:30:09.529Z,100098.87
2018-12-09T22:32:38.724Z,100112.42
2018-12-09T22:35:08.286Z,100119.02
2018-12-09T22:37:37.312Z,100121.63
2018-12-09T22:40:08.241Z,100128.60
2018-12-09T22:42:38.436Z,100129.45
2018-12-09T22:45:07.683Z,100122.50
2018-12-09T22:47:36.736Z,100129.34
2018-12-09T22:50:05.925Z,100133.27
2018-12-09T22:52:34.952Z,100136.41
2018-12-09T22:55:04.413Z,100138.64
2018-12-09T22:57:33.475Z,100146.92
2018-12-09T23:00:02.569Z,100152.14
2018-12-09T23:02:36.947Z,100165.25
2018-12-09T23:05:06.196Z,100167.70
2018-12-09T23:07:40.650Z,100167.17
2018-12-09T23:10:09.758Z,100182.06
2018-12-09T23:12:38.776Z,100175.48
2018-12-09T23:15:07.868Z,100176.42
2018-12-09T23:17:36.875Z,100184.76
2018-12-09T23:20:05.960Z,100185.67
2018-12-09T23:22:34.956Z,100184.80
2018-12-09T23:25:04.228Z,100193.06
2018-12-09T23:27:33.237Z,100197.45
2018-12-09T23:30:02.316Z,100197.45
2018-12-09T23:32:31.395Z,100205.30
2018-12-09T23:35:00.428Z,100211.80
2018-12-09T23:37:29.521Z,100211.31
2018-12-09T23:39:58.528Z,100222.72
2018-12-09T23:42:27.572Z,100226.63
2018-12-09T23:44:56.562Z,100230.06
2018-12-09T23:47:25.549Z,100224.78
2018-12-09T23:49:54.594Z,100234.36
2018-12-09T23:52:23.590Z,100234.33
2018-12-09T23:54:52.588Z,100229.09
2018-12-09T23:57:21.617Z,100240.48
2018-12-09T23:59:50.639Z,100247.41
